Effective Sunday, March 17, 2024, the National Weather Service National Data Buoy Center will discontinue its Dial-A-Buoy Interactive Voice Response system. For more information, see Service Change Notice 24-06 (PDF).

Station SVNM4 - South Haven Light, South Haven, MI Image indicating link to RSS feed of recent meteorological observations for station SVNM4


Conditions at SVNM4 as of
(2:50 am EST)
0750 GMT on 02/29/2024:
     

Click on the graph icon in the table below to see a time series plot of the last five days of that observation.

5-day plot - Wind Direction Wind Direction (WDIR): W ( 270 deg true )
5-day plot - Wind Speed Wind Speed (WSPD): 24 kts
5-day plot - Wind Gust Wind Gust (GST): 28 kts
5-day plot - Air Temperature Air Temperature (ATMP): 25.3 °F
5-day plot - Wind Chill Wind Chill (CHILL): 9.1 °F
5-day plot -  Wind Speed, Wind Gust and Atmospheric Pressure Combined plot of Wind Speed, Gust, and Air Pressure
Previous observations
TIME
(EST)
5-day plot - Wind Direction
WDIR
 
5-day plot - Wind Speed
WSPD
kts
5-day plot - Wind Gust
GST
kts
5-day plot - Wave Height
WVHT
ft
5-day plot - Dominant Wave Period
DPD
sec
5-day plot - Average Wave Period
APD
sec
5-day plot - Mean Wave Direction
MWD
 
5-day plot - Atmospheric Pressure
PRES
in
5-day plot - Pressure Tendency
PTDY
in
5-day plot - Air Temperature
ATMP
°F
5-day plot - Water Temperature
WTMP
°F
5-day plot - Dew Point
DEWP
°F
5-day plot - Salinity
SAL
psu
5-day plot - Visibility
VIS
nmi
5-day plot - Tide (above MLLW)
TIDE
ft
2024-02-29 02:40 am W 21 24------ 26.1-----
2024-02-29 02:30 am W 22 26------ 26.4-----
2024-02-29 02:20 am W 22 26------ 25.9-----
2024-02-29 02:10 am W 21 24------ 26.1-----
2024-02-29 02:00 am W 23 29------ 26.6-----
2024-02-29 01:50 am W 22 26------ 27.1-----
2024-02-29 01:40 am W 23 26------ 26.6-----
2024-02-29 01:30 am W 24 27------ 26.8-----
2024-02-29 01:20 am W 24 29------ 26.6-----
2024-02-29 01:10 am W 23 28------ 27.0-----
2024-02-29 01:00 am W 25 27------ 27.0-----
2024-02-29 12:50 am W 25 28------ 26.6-----
2024-02-29 12:40 am W 25 29------ 27.7-----
2024-02-29 12:30 am W 26 30------ 27.7-----
2024-02-29 12:20 amWSW 22 24------ 27.9-----
2024-02-29 12:10 am W 24 26------ 28.2-----
2024-02-29 12:00 am W 25 30------ 28.4-----
2024-02-28 11:50 pmWSW 23 26------ 28.4-----
2024-02-28 11:40 pm W 23 27------ 29.1-----
2024-02-28 11:30 pm W 25 28------ 28.9-----
2024-02-28 11:20 pm W 22 28------ 28.9-----
2024-02-28 11:10 pm W 25 27------ 29.3-----
2024-02-28 11:00 pm W 25 28------ 29.5-----
2024-02-28 10:50 pm W 20 24------ 30.0-----
2024-02-28 10:40 pmWSW 23 25------ 29.8-----
2024-02-28 10:30 pm W 24 27------ 30.0-----
2024-02-28 10:20 pmWSW 25 29------ 29.8-----
2024-02-28 10:10 pmWSW 22 29------ 30.0-----
2024-02-28 10:00 pmWSW 21 24------ 30.2-----
2024-02-28 09:50 pm W 24 26------ 30.0-----
2024-02-28 09:40 pm W 24 27------ 30.0-----
2024-02-28 09:30 pm W 22 25------ 30.0-----
2024-02-28 09:20 pmWSW 22 26------ 30.0-----
2024-02-28 09:10 pm W 22 30------ 29.8-----
2024-02-28 09:00 pmWSW 23 26------ 29.7-----
2024-02-28 08:50 pmWSW 23 27------ 29.7-----
2024-02-28 08:40 pmWSW 23 26------ 29.8-----
2024-02-28 08:30 pmWSW 19 20------ 29.8-----
2024-02-28 08:20 pm W 24 27------ 29.8-----
2024-02-28 08:10 pm W 18 22------ 29.3-----
2024-02-28 08:00 pm W 22 24------ 29.7-----
2024-02-28 07:50 pm W 21 25------ 29.5-----
2024-02-28 07:40 pmWSW 23 27------ 29.3-----
2024-02-28 07:30 pmWSW 19 24------ 29.3-----
2024-02-28 07:20 pm W 22 25------ 28.9-----
2024-02-28 07:10 pm W 19 20------ 28.6-----
2024-02-28 07:00 pm W 19 22------ 28.8-----
2024-02-28 06:40 pm W 22 23------ 28.2-----
2024-02-28 06:30 pm W 21 25------ 27.7-----
2024-02-28 06:20 pm W 19 22------ 27.5-----
2024-02-28 06:10 pm W 23 25------ 27.5-----
2024-02-28 06:00 pmWSW 17 21------ 27.0-----
2024-02-28 05:50 pm W 20 23------ 26.8-----
2024-02-28 05:40 pmWSW 21 25------ 26.8-----
2024-02-28 05:30 pm W 18 21------ 26.4-----
2024-02-28 05:20 pm W 19 22------ 26.2-----
2024-02-28 05:10 pm W 20 23------ 26.4-----
2024-02-28 05:00 pm W 19 21------ 25.9-----
2024-02-28 04:50 pm W 20 22------ 25.7-----
2024-02-28 04:40 pm W 19 21------ 25.2-----
2024-02-28 04:30 pm W 21 25------ 25.3-----
2024-02-28 04:20 pm W 18 21------ 24.4-----
2024-02-28 04:10 pm W 22 24------ 24.3-----
2024-02-28 04:00 pm W 19 23------ 24.1-----
2024-02-28 03:50 pm W 21 24------ 23.9-----
2024-02-28 03:40 pm W 24 29------ 24.3-----
2024-02-28 03:30 pm W 24 26------ 23.7-----
2024-02-28 03:20 pm W 23 27------ 23.9-----
2024-02-28 03:10 pm W 25 29------ 24.1-----
2024-02-28 03:00 pm W 25 29------ 23.5-----
2024-02-28 02:50 pm W 27 32------ 23.7-----
2024-02-28 02:40 pm W 24 30------ 23.5-----
2024-02-28 02:30 pm W 27 31------ 23.2-----
2024-02-28 02:20 pm W 26 31------ 23.5-----
2024-02-28 02:10 pm W 30 34------ 23.4-----
2024-02-28 02:00 pm W 30 34------ 23.2-----
2024-02-28 01:50 pm W 32 36------ 23.4-----
2024-02-28 01:40 pm W 29 33------ 23.5-----
2024-02-28 01:30 pm W 29 34------ 23.2-----
2024-02-28 01:20 pm W 30 33------ 23.4-----
2024-02-28 01:10 pm W 29 33------ 22.6-----
2024-02-28 01:00 pm W 30 37------ 22.8-----
2024-02-28 12:50 pm W 32 37------ 22.3-----
2024-02-28 12:40 pm W 28 31------ 22.6-----
2024-02-28 12:30 pm W 31 37------ 22.3-----
2024-02-28 12:20 pm W 32 36------ 22.5-----
2024-02-28 12:10 pm W 32 37------ 22.5-----
2024-02-28 12:00 pm W 33 37------ 22.1-----
2024-02-28 11:50 am W 31 38------ 22.8-----
2024-02-28 11:40 am W 31 37------ 23.0-----
2024-02-28 11:30 am W 34 38------ 22.5-----
2024-02-28 11:20 am W 33 35------ 22.6-----
2024-02-28 11:10 am W 33 38------ 23.4-----
2024-02-28 11:00 am W 33 37------ 23.5-----
2024-02-28 10:50 am W 35 43------ 24.1-----
2024-02-28 10:40 am W 33 37------ 24.8-----
2024-02-28 10:30 am W 33 37------ 25.2-----
2024-02-28 10:20 am W 36 38------ 25.0-----
2024-02-28 10:10 am W 34 39------ 26.1-----
2024-02-28 10:00 am W 30 33------ 27.3-----
2024-02-28 09:50 am W 36 42------ 26.8-----
2024-02-28 09:40 am W 37 41------ 26.8-----
2024-02-28 09:30 am W 33 40------ 27.5-----
2024-02-28 09:20 amWNW 36 39------ 27.0-----
2024-02-28 09:10 am W 37 42------ 27.5-----
2024-02-28 09:00 am W 35 42------ 28.0-----
2024-02-28 08:50 am W 35 40------ 28.9-----
2024-02-28 08:40 amWNW 33 37------ 29.7-----
2024-02-28 08:30 amWNW 29 35------ 30.6-----
2024-02-28 08:20 amWNW 33 37------ 30.4-----
2024-02-28 08:10 amWNW 32 39------ 31.1-----
2024-02-28 08:00 amWNW 31 37------ 31.3-----
2024-02-28 07:50 amWNW 31 35------ 32.0-----
2024-02-28 07:40 amWNW 35 39------ 32.2-----
2024-02-28 07:30 amWNW 32 36------ 33.1-----
2024-02-28 07:20 amWNW 29 33------ 33.3-----
2024-02-28 07:10 amWNW 32 35------ 33.4-----
2024-02-28 07:00 amWNW 29 34------ 33.6-----
2024-02-28 06:50 amWNW 29 33------ 34.9-----
2024-02-28 06:40 amWNW 30 34------ 34.7-----
2024-02-28 06:30 amWNW 32 38------ 35.2-----
2024-02-28 06:20 amWNW 31 35------ 35.4-----
2024-02-28 06:10 amWNW 30 35------ 35.6-----
2024-02-28 06:00 amWNW 30 34------ 35.8-----
2024-02-28 05:50 amWNW 31 35------ 35.8-----
2024-02-28 05:40 amWNW 31 36------ 36.0-----
2024-02-28 05:30 amWNW 28 34------ 36.5-----
2024-02-28 05:20 amWNW 26 30------ 36.5-----
2024-02-28 05:10 am NW 27 31------ 36.7-----
2024-02-28 05:00 amWNW 28 32------ 36.9-----
2024-02-28 04:50 amWNW 24 28------ 37.2-----
2024-02-28 04:40 amWNW 23 25------ 37.6-----
2024-02-28 04:30 am W 23 27------ 38.1-----
2024-02-28 04:20 amWNW 25 29------ 37.9-----
2024-02-28 04:10 amWNW 20 23------ 37.9-----
2024-02-28 04:00 amWNW 19 22------ 37.9-----
2024-02-28 03:50 amWNW 22 23------ 37.8-----
2024-02-28 03:40 amWNW 24 29------ 37.9-----
2024-02-28 03:30 amWNW 29 32------ 38.1-----
2024-02-28 03:20 am NW 23 26------ 39.2-----
2024-02-28 03:10 am NW 19 22------ 40.1-----
2024-02-28 03:00 am NW 23 26------ 41.7-----
2024-02-28 02:50 am W 17 19------ 43.0-----